Terminal Aerodrome Forecast
Issued by NWS Birmingham, AL

Home | Current Version | Previous Version | Text Only | Print | Product List | Glossary On
Versions: 1 2 3 4 5 6 7 8 9 10 11 12 13 14 15
000
FTUS44 KBMX 291139
TAFBHM
TAF
KBHM 291139Z 2912/3012 12004KT P6SM SCT020 SCT080 OVC150
      TEMPO 2912/2915 -SHRA BKN020 OVC080
     FM291500 13007KT 6SM -SHRA VCTS BKN035CB
     FM300000 11004KT P6SM -SHRA VCTS OVC050CB=

USA.gov is the U.S. government's official web portal to all federal, state and local government web resources and services.